sensor_id;sensor_type;location;lat;lon;timestamp;P1;durP1;ratioP1;P2;durP2;ratioP2
22425;SDS011;11380;50.822;15.790;2023-08-20T00:00:05;81.17;;;62.50;;
22425;SDS011;11380;50.822;15.790;2023-08-20T00:05:15;84.17;;;62.90;;
22425;SDS011;11380;50.822;15.790;2023-08-20T00:10:24;81.67;;;62.58;;
22425;SDS011;11380;50.822;15.790;2023-08-20T00:15:32;79.32;;;62.23;;
22425;SDS011;11380;50.822;15.790;2023-08-20T00:20:40;79.30;;;61.37;;
22425;SDS011;11380;50.822;15.790;2023-08-20T00:25:50;79.40;;;61.00;;
22425;SDS011;11380;50.822;15.790;2023-08-20T00:30:59;79.63;;;60.97;;
22425;SDS011;11380;50.822;15.790;2023-08-20T00:36:07;80.40;;;61.47;;
22425;SDS011;11380;50.822;15.790;2023-08-20T00:41:15;78.60;;;60.63;;
22425;SDS011;11380;50.822;15.790;2023-08-20T00:46:24;80.92;;;61.23;;
22425;SDS011;11380;50.822;15.790;2023-08-20T00:51:33;80.50;;;61.33;;
22425;SDS011;11380;50.822;15.790;2023-08-20T00:56:42;80.90;;;60.25;;
22425;SDS011;11380;50.822;15.790;2023-08-20T01:01:50;78.85;;;61.30;;
22425;SDS011;11380;50.822;15.790;2023-08-20T01:12:41;80.38;;;59.88;;
22425;SDS011;11380;50.822;15.790;2023-08-20T01:17:52;81.93;;;60.90;;
22425;SDS011;11380;50.822;15.790;2023-08-20T01:28:32;75.97;;;59.27;;
22425;SDS011;11380;50.822;15.790;2023-08-20T01:33:41;76.53;;;59.70;;
22425;SDS011;11380;50.822;15.790;2023-08-20T01:38:49;77.40;;;60.30;;
22425;SDS011;11380;50.822;15.790;2023-08-20T01:43:56;78.80;;;60.45;;
22425;SDS011;11380;50.822;15.790;2023-08-20T01:49:04;77.33;;;59.87;;
22425;SDS011;11380;50.822;15.790;2023-08-20T01:54:12;75.70;;;59.53;;
22425;SDS011;11380;50.822;15.790;2023-08-20T01:59:21;78.33;;;60.03;;
22425;SDS011;11380;50.822;15.790;2023-08-20T02:04:29;78.05;;;59.60;;
22425;SDS011;11380;50.822;15.790;2023-08-20T02:09:38;75.37;;;59.83;;
22425;SDS011;11380;50.822;15.790;2023-08-20T02:14:46;84.17;;;59.60;;
22425;SDS011;11380;50.822;15.790;2023-08-20T02:19:55;75.57;;;59.27;;
22425;SDS011;11380;50.822;15.790;2023-08-20T02:25:03;76.60;;;59.15;;
22425;SDS011;11380;50.822;15.790;2023-08-20T02:30:12;74.42;;;58.73;;
22425;SDS011;11380;50.822;15.790;2023-08-20T02:35:21;77.80;;;60.23;;
22425;SDS011;11380;50.822;15.790;2023-08-20T02:40:29;79.03;;;58.37;;
22425;SDS011;11380;50.822;15.790;2023-08-20T02:45:40;74.20;;;58.18;;
22425;SDS011;11380;50.822;15.790;2023-08-20T02:50:48;75.13;;;58.67;;
22425;SDS011;11380;50.822;15.790;2023-08-20T02:55:56;74.90;;;58.80;;
22425;SDS011;11380;50.822;15.790;2023-08-20T03:01:05;75.10;;;59.03;;
22425;SDS011;11380;50.822;15.790;2023-08-20T03:06:13;77.60;;;58.73;;
22425;SDS011;11380;50.822;15.790;2023-08-20T03:11:23;79.67;;;59.42;;
22425;SDS011;11380;50.822;15.790;2023-08-20T03:16:31;76.37;;;58.50;;
22425;SDS011;11380;50.822;15.790;2023-08-20T03:21:39;81.07;;;59.00;;
22425;SDS011;11380;50.822;15.790;2023-08-20T03:26:47;74.53;;;59.27;;
22425;SDS011;11380;50.822;15.790;2023-08-20T03:31:55;78.00;;;58.87;;
22425;SDS011;11380;50.822;15.790;2023-08-20T03:37:02;74.97;;;59.13;;
22425;SDS011;11380;50.822;15.790;2023-08-20T03:42:12;73.90;;;58.40;;
22425;SDS011;11380;50.822;15.790;2023-08-20T03:47:20;74.15;;;58.65;;
22425;SDS011;11380;50.822;15.790;2023-08-20T03:52:28;76.93;;;58.73;;
22425;SDS011;11380;50.822;15.790;2023-08-20T03:57:36;73.70;;;57.60;;
22425;SDS011;11380;50.822;15.790;2023-08-20T04:02:45;75.72;;;58.48;;
22425;SDS011;11380;50.822;15.790;2023-08-20T04:07:53;76.13;;;58.00;;
22425;SDS011;11380;50.822;15.790;2023-08-20T04:13:02;81.90;;;59.17;;
22425;SDS011;11380;50.822;15.790;2023-08-20T04:18:09;73.87;;;57.83;;
22425;SDS011;11380;50.822;15.790;2023-08-20T04:23:18;75.28;;;59.35;;
22425;SDS011;11380;50.822;15.790;2023-08-20T04:28:25;77.63;;;58.73;;
22425;SDS011;11380;50.822;15.790;2023-08-20T04:33:33;78.40;;;60.13;;
22425;SDS011;11380;50.822;15.790;2023-08-20T04:38:40;74.32;;;58.87;;
22425;SDS011;11380;50.822;15.790;2023-08-20T04:43:47;74.80;;;58.92;;
22425;SDS011;11380;50.822;15.790;2023-08-20T04:48:54;75.63;;;59.67;;
22425;SDS011;11380;50.822;15.790;2023-08-20T04:54:02;75.47;;;59.75;;
22425;SDS011;11380;50.822;15.790;2023-08-20T04:59:10;77.20;;;61.17;;
22425;SDS011;11380;50.822;15.790;2023-08-20T05:04:17;79.10;;;61.13;;
22425;SDS011;11380;50.822;15.790;2023-08-20T05:09:24;83.30;;;62.93;;
22425;SDS011;11380;50.822;15.790;2023-08-20T05:14:32;77.45;;;61.50;;
22425;SDS011;11380;50.822;15.790;2023-08-20T05:19:40;78.17;;;61.90;;
22425;SDS011;11380;50.822;15.790;2023-08-20T05:24:48;78.70;;;62.05;;
22425;SDS011;11380;50.822;15.790;2023-08-20T05:29:55;77.63;;;61.40;;
22425;SDS011;11380;50.822;15.790;2023-08-20T05:35:03;79.65;;;61.42;;
22425;SDS011;11380;50.822;15.790;2023-08-20T05:40:10;80.83;;;61.57;;
22425;SDS011;11380;50.822;15.790;2023-08-20T05:45:18;80.43;;;62.37;;
22425;SDS011;11380;50.822;15.790;2023-08-20T05:50:25;79.57;;;62.63;;
22425;SDS011;11380;50.822;15.790;2023-08-20T05:55:32;82.03;;;62.43;;
22425;SDS011;11380;50.822;15.790;2023-08-20T06:00:39;80.33;;;61.63;;
22425;SDS011;11380;50.822;15.790;2023-08-20T06:05:48;78.75;;;61.88;;
22425;SDS011;11380;50.822;15.790;2023-08-20T06:10:55;82.57;;;62.53;;
22425;SDS011;11380;50.822;15.790;2023-08-20T06:16:02;80.97;;;61.63;;
22425;SDS011;11380;50.822;15.790;2023-08-20T06:21:11;78.92;;;61.85;;
22425;SDS011;11380;50.822;15.790;2023-08-20T06:26:18;84.13;;;62.00;;
22425;SDS011;11380;50.822;15.790;2023-08-20T06:31:25;82.93;;;62.77;;
22425;SDS011;11380;50.822;15.790;2023-08-20T06:36:33;83.00;;;63.58;;
22425;SDS011;11380;50.822;15.790;2023-08-20T06:41:40;82.10;;;63.30;;
22425;SDS011;11380;50.822;15.790;2023-08-20T06:46:47;88.17;;;63.30;;
22425;SDS011;11380;50.822;15.790;2023-08-20T06:51:55;81.40;;;63.43;;
22425;SDS011;11380;50.822;15.790;2023-08-20T06:57:02;81.63;;;62.80;;
22425;SDS011;11380;50.822;15.790;2023-08-20T07:02:12;87.93;;;64.10;;
22425;SDS011;11380;50.822;15.790;2023-08-20T07:07:19;84.23;;;63.83;;
22425;SDS011;11380;50.822;15.790;2023-08-20T07:12:26;81.80;;;63.63;;
22425;SDS011;11380;50.822;15.790;2023-08-20T07:17:33;88.60;;;64.73;;
22425;SDS011;11380;50.822;15.790;2023-08-20T07:22:42;82.70;;;63.25;;
22425;SDS011;11380;50.822;15.790;2023-08-20T07:27:51;81.23;;;62.87;;
22425;SDS011;11380;50.822;15.790;2023-08-20T07:33:00;81.63;;;62.93;;
22425;SDS011;11380;50.822;15.790;2023-08-20T07:38:09;83.85;;;63.30;;
22425;SDS011;11380;50.822;15.790;2023-08-20T07:43:17;81.03;;;62.13;;
22425;SDS011;11380;50.822;15.790;2023-08-20T07:48:24;83.57;;;64.27;;
22425;SDS011;11380;50.822;15.790;2023-08-20T07:53:33;84.80;;;64.32;;
22425;SDS011;11380;50.822;15.790;2023-08-20T07:58:41;84.60;;;63.33;;
22425;SDS011;11380;50.822;15.790;2023-08-20T08:03:49;84.67;;;64.50;;
22425;SDS011;11380;50.822;15.790;2023-08-20T08:08:57;85.43;;;65.17;;
22425;SDS011;11380;50.822;15.790;2023-08-20T08:14:24;88.30;;;64.57;;
22425;SDS011;11380;50.822;15.790;2023-08-20T08:19:33;86.47;;;64.87;;
22425;SDS011;11380;50.822;15.790;2023-08-20T08:24:41;85.00;;;65.03;;
22425;SDS011;11380;50.822;15.790;2023-08-20T08:29:48;86.70;;;65.20;;
22425;SDS011;11380;50.822;15.790;2023-08-20T08:34:57;84.90;;;63.33;;
22425;SDS011;11380;50.822;15.790;2023-08-20T08:40:06;85.43;;;64.10;;
22425;SDS011;11380;50.822;15.790;2023-08-20T08:45:23;86.10;;;64.30;;
22425;SDS011;11380;50.822;15.790;2023-08-20T08:50:25;86.07;;;64.53;;
22425;SDS011;11380;50.822;15.790;2023-08-20T08:55:33;85.70;;;65.23;;
22425;SDS011;11380;50.822;15.790;2023-08-20T09:00:47;86.87;;;64.87;;
22425;SDS011;11380;50.822;15.790;2023-08-20T09:06:00;89.83;;;66.17;;
22425;SDS011;11380;50.822;15.790;2023-08-20T09:11:14;88.03;;;65.77;;
22425;SDS011;11380;50.822;15.790;2023-08-20T09:16:23;88.13;;;67.10;;
22425;SDS011;11380;50.822;15.790;2023-08-20T09:21:32;87.53;;;66.22;;
22425;SDS011;11380;50.822;15.790;2023-08-20T09:26:45;86.97;;;65.90;;
22425;SDS011;11380;50.822;15.790;2023-08-20T09:31:59;88.25;;;66.90;;
22425;SDS011;11380;50.822;15.790;2023-08-20T09:37:10;88.77;;;65.50;;
22425;SDS011;11380;50.822;15.790;2023-08-20T09:42:21;89.80;;;65.32;;
22425;SDS011;11380;50.822;15.790;2023-08-20T09:47:33;88.13;;;66.23;;
22425;SDS011;11380;50.822;15.790;2023-08-20T09:52:57;87.43;;;65.70;;
22425;SDS011;11380;50.822;15.790;2023-08-20T09:58:12;89.10;;;66.93;;
22425;SDS011;11380;50.822;15.790;2023-08-20T10:03:21;87.15;;;67.20;;
22425;SDS011;11380;50.822;15.790;2023-08-20T10:08:29;89.63;;;67.40;;
22425;SDS011;11380;50.822;15.790;2023-08-20T10:13:38;88.37;;;66.97;;
22425;SDS011;11380;50.822;15.790;2023-08-20T10:18:46;88.03;;;66.80;;
22425;SDS011;11380;50.822;15.790;2023-08-20T10:23:54;88.47;;;66.55;;
22425;SDS011;11380;50.822;15.790;2023-08-20T10:34:49;89.53;;;66.00;;
22425;SDS011;11380;50.822;15.790;2023-08-20T10:39:59;89.70;;;67.43;;
22425;SDS011;11380;50.822;15.790;2023-08-20T10:45:09;90.63;;;66.90;;
22425;SDS011;11380;50.822;15.790;2023-08-20T10:50:19;88.05;;;66.75;;
22425;SDS011;11380;50.822;15.790;2023-08-20T10:55:27;89.10;;;68.10;;
22425;SDS011;11380;50.822;15.790;2023-08-20T11:00:35;89.40;;;68.00;;
22425;SDS011;11380;50.822;15.790;2023-08-20T11:05:44;90.37;;;67.77;;
22425;SDS011;11380;50.822;15.790;2023-08-20T11:10:54;90.47;;;67.63;;
22425;SDS011;11380;50.822;15.790;2023-08-20T11:16:02;91.67;;;68.17;;
22425;SDS011;11380;50.822;15.790;2023-08-20T11:21:14;91.50;;;67.17;;
22425;SDS011;11380;50.822;15.790;2023-08-20T11:26:22;89.83;;;67.63;;
22425;SDS011;11380;50.822;15.790;2023-08-20T11:31:30;89.17;;;67.27;;
22425;SDS011;11380;50.822;15.790;2023-08-20T11:36:40;90.57;;;67.17;;
22425;SDS011;11380;50.822;15.790;2023-08-20T11:41:47;89.72;;;68.15;;
22425;SDS011;11380;50.822;15.790;2023-08-20T11:46:54;91.07;;;68.67;;
22425;SDS011;11380;50.822;15.790;2023-08-20T11:52:01;88.40;;;67.80;;
22425;SDS011;11380;50.822;15.790;2023-08-20T11:57:09;89.73;;;68.30;;
22425;SDS011;11380;50.822;15.790;2023-08-20T12:02:24;89.47;;;67.63;;
22425;SDS011;11380;50.822;15.790;2023-08-20T12:07:33;88.60;;;67.80;;
22425;SDS011;11380;50.822;15.790;2023-08-20T12:12:41;88.40;;;67.40;;
22425;SDS011;11380;50.822;15.790;2023-08-20T12:18:02;89.65;;;67.45;;
22425;SDS011;11380;50.822;15.790;2023-08-20T12:23:12;89.90;;;67.45;;
22425;SDS011;11380;50.822;15.790;2023-08-20T12:28:24;89.43;;;67.13;;
22425;SDS011;11380;50.822;15.790;2023-08-20T12:33:33;87.47;;;66.43;;
22425;SDS011;11380;50.822;15.790;2023-08-20T12:38:40;89.17;;;66.72;;
22425;SDS011;11380;50.822;15.790;2023-08-20T12:43:47;89.37;;;67.83;;
22425;SDS011;11380;50.822;15.790;2023-08-20T12:48:54;90.80;;;67.10;;
22425;SDS011;11380;50.822;15.790;2023-08-20T12:54:03;90.10;;;67.17;;
22425;SDS011;11380;50.822;15.790;2023-08-20T12:59:12;89.50;;;67.25;;
22425;SDS011;11380;50.822;15.790;2023-08-20T13:04:19;88.07;;;67.17;;
22425;SDS011;11380;50.822;15.790;2023-08-20T13:09:28;88.65;;;66.53;;
22425;SDS011;11380;50.822;15.790;2023-08-20T13:14:36;88.76;;;67.52;;
22425;SDS011;11380;50.822;15.790;2023-08-20T13:19:48;90.45;;;67.10;;
22425;SDS011;11380;50.822;15.790;2023-08-20T13:24:55;92.20;;;66.67;;
22425;SDS011;11380;50.822;15.790;2023-08-20T13:30:04;92.90;;;67.93;;
22425;SDS011;11380;50.822;15.790;2023-08-20T13:35:12;90.73;;;67.43;;
22425;SDS011;11380;50.822;15.790;2023-08-20T13:40:21;92.97;;;69.37;;
22425;SDS011;11380;50.822;15.790;2023-08-20T13:45:31;91.33;;;67.97;;
22425;SDS011;11380;50.822;15.790;2023-08-20T13:50:42;90.10;;;67.72;;
22425;SDS011;11380;50.822;15.790;2023-08-20T13:55:48;90.62;;;67.58;;
22425;SDS011;11380;50.822;15.790;2023-08-20T14:00:56;88.27;;;67.80;;
22425;SDS011;11380;50.822;15.790;2023-08-20T14:06:03;88.63;;;67.53;;
22425;SDS011;11380;50.822;15.790;2023-08-20T14:11:13;93.20;;;68.30;;
22425;SDS011;11380;50.822;15.790;2023-08-20T14:16:25;88.33;;;67.13;;
22425;SDS011;11380;50.822;15.790;2023-08-20T14:21:35;90.47;;;67.83;;
22425;SDS011;11380;50.822;15.790;2023-08-20T14:26:43;91.43;;;68.10;;
22425;SDS011;11380;50.822;15.790;2023-08-20T14:31:50;89.37;;;68.20;;
22425;SDS011;11380;50.822;15.790;2023-08-20T14:36:57;88.80;;;67.17;;
22425;SDS011;11380;50.822;15.790;2023-08-20T14:42:05;89.37;;;67.13;;
22425;SDS011;11380;50.822;15.790;2023-08-20T14:47:13;92.20;;;67.23;;
22425;SDS011;11380;50.822;15.790;2023-08-20T14:52:21;89.65;;;67.22;;
22425;SDS011;11380;50.822;15.790;2023-08-20T14:57:30;93.10;;;67.70;;
22425;SDS011;11380;50.822;15.790;2023-08-20T15:02:38;89.63;;;67.40;;
22425;SDS011;11380;50.822;15.790;2023-08-20T15:07:49;91.93;;;67.37;;
22425;SDS011;11380;50.822;15.790;2023-08-20T15:12:56;88.97;;;66.53;;
22425;SDS011;11380;50.822;15.790;2023-08-20T15:18:04;90.20;;;66.23;;
22425;SDS011;11380;50.822;15.790;2023-08-20T15:23:11;88.43;;;66.57;;
22425;SDS011;11380;50.822;15.790;2023-08-20T15:28:21;89.27;;;66.67;;
22425;SDS011;11380;50.822;15.790;2023-08-20T15:33:34;87.78;;;64.87;;
22425;SDS011;11380;50.822;15.790;2023-08-20T15:38:43;86.95;;;64.87;;
22425;SDS011;11380;50.822;15.790;2023-08-20T15:43:50;87.62;;;65.25;;
22425;SDS011;11380;50.822;15.790;2023-08-20T15:48:57;87.03;;;65.37;;
22425;SDS011;11380;50.822;15.790;2023-08-20T15:54:05;87.60;;;65.13;;
22425;SDS011;11380;50.822;15.790;2023-08-20T15:59:13;89.53;;;66.30;;
22425;SDS011;11380;50.822;15.790;2023-08-20T16:04:22;90.13;;;67.03;;
22425;SDS011;11380;50.822;15.790;2023-08-20T16:09:29;94.73;;;65.07;;
22425;SDS011;11380;50.822;15.790;2023-08-20T16:14:37;87.30;;;64.57;;
22425;SDS011;11380;50.822;15.790;2023-08-20T16:19:45;86.57;;;65.30;;
22425;SDS011;11380;50.822;15.790;2023-08-20T16:24:53;91.93;;;65.80;;
22425;SDS011;11380;50.822;15.790;2023-08-20T16:30:01;88.50;;;65.87;;
22425;SDS011;11380;50.822;15.790;2023-08-20T16:35:08;91.20;;;66.60;;
22425;SDS011;11380;50.822;15.790;2023-08-20T16:40:20;90.27;;;65.77;;
22425;SDS011;11380;50.822;15.790;2023-08-20T16:45:29;89.93;;;65.83;;
22425;SDS011;11380;50.822;15.790;2023-08-20T16:51:44;93.07;;;66.80;;
22425;SDS011;11380;50.822;15.790;2023-08-20T16:56:52;91.83;;;67.57;;
22425;SDS011;11380;50.822;15.790;2023-08-20T17:01:59;90.97;;;68.03;;
22425;SDS011;11380;50.822;15.790;2023-08-20T17:07:08;92.22;;;66.75;;
22425;SDS011;11380;50.822;15.790;2023-08-20T17:12:15;88.37;;;66.03;;
22425;SDS011;11380;50.822;15.790;2023-08-20T17:17:28;88.33;;;66.67;;
22425;SDS011;11380;50.822;15.790;2023-08-20T17:22:38;94.62;;;67.90;;
22425;SDS011;11380;50.822;15.790;2023-08-20T17:27:46;89.53;;;67.00;;
22425;SDS011;11380;50.822;15.790;2023-08-20T17:32:55;89.23;;;67.20;;
22425;SDS011;11380;50.822;15.790;2023-08-20T17:38:04;92.03;;;68.40;;
22425;SDS011;11380;50.822;15.790;2023-08-20T17:43:13;90.20;;;66.40;;
22425;SDS011;11380;50.822;15.790;2023-08-20T17:48:22;88.70;;;67.12;;
22425;SDS011;11380;50.822;15.790;2023-08-20T17:53:32;91.30;;;68.67;;
22425;SDS011;11380;50.822;15.790;2023-08-20T17:58:39;90.50;;;67.50;;
22425;SDS011;11380;50.822;15.790;2023-08-20T18:03:46;91.15;;;66.53;;
22425;SDS011;11380;50.822;15.790;2023-08-20T18:08:54;89.87;;;66.20;;
22425;SDS011;11380;50.822;15.790;2023-08-20T18:14:01;88.67;;;65.87;;
22425;SDS011;11380;50.822;15.790;2023-08-20T18:19:08;89.10;;;65.87;;
22425;SDS011;11380;50.822;15.790;2023-08-20T18:24:15;93.80;;;65.80;;
22425;SDS011;11380;50.822;15.790;2023-08-20T18:29:22;87.70;;;65.00;;
22425;SDS011;11380;50.822;15.790;2023-08-20T18:34:29;89.47;;;65.13;;
22425;SDS011;11380;50.822;15.790;2023-08-20T18:39:36;87.83;;;65.87;;
22425;SDS011;11380;50.822;15.790;2023-08-20T18:44:43;88.33;;;66.35;;
22425;SDS011;11380;50.822;15.790;2023-08-20T18:49:52;88.23;;;65.33;;
22425;SDS011;11380;50.822;15.790;2023-08-20T18:55:00;96.53;;;70.85;;
22425;SDS011;11380;50.822;15.790;2023-08-20T19:00:09;95.07;;;69.90;;
22425;SDS011;11380;50.822;15.790;2023-08-20T19:05:17;89.67;;;67.47;;
22425;SDS011;11380;50.822;15.790;2023-08-20T19:10:27;89.20;;;65.15;;
22425;SDS011;11380;50.822;15.790;2023-08-20T19:15:49;90.13;;;66.67;;
22425;SDS011;11380;50.822;15.790;2023-08-20T19:20:54;88.67;;;65.77;;
22425;SDS011;11380;50.822;15.790;2023-08-20T19:26:01;90.30;;;66.00;;
22425;SDS011;11380;50.822;15.790;2023-08-20T19:31:09;87.97;;;66.60;;
22425;SDS011;11380;50.822;15.790;2023-08-20T19:36:18;87.40;;;65.37;;
22425;SDS011;11380;50.822;15.790;2023-08-20T19:41:25;88.80;;;64.63;;
22425;SDS011;11380;50.822;15.790;2023-08-20T19:46:33;90.03;;;65.73;;
22425;SDS011;11380;50.822;15.790;2023-08-20T19:51:42;87.20;;;65.17;;
22425;SDS011;11380;50.822;15.790;2023-08-20T19:56:49;85.97;;;64.92;;
22425;SDS011;11380;50.822;15.790;2023-08-20T20:01:58;86.37;;;65.40;;
22425;SDS011;11380;50.822;15.790;2023-08-20T20:07:05;87.97;;;65.67;;
22425;SDS011;11380;50.822;15.790;2023-08-20T20:12:14;86.67;;;64.83;;
22425;SDS011;11380;50.822;15.790;2023-08-20T20:17:20;85.80;;;65.23;;
22425;SDS011;11380;50.822;15.790;2023-08-20T20:22:28;89.62;;;65.57;;
22425;SDS011;11380;50.822;15.790;2023-08-20T20:27:35;86.90;;;65.43;;
22425;SDS011;11380;50.822;15.790;2023-08-20T20:32:43;87.80;;;65.45;;
22425;SDS011;11380;50.822;15.790;2023-08-20T20:37:50;88.07;;;65.23;;
22425;SDS011;11380;50.822;15.790;2023-08-20T20:42:56;87.43;;;65.53;;
22425;SDS011;11380;50.822;15.790;2023-08-20T20:48:03;89.07;;;66.60;;
22425;SDS011;11380;50.822;15.790;2023-08-20T20:53:12;89.87;;;67.00;;
22425;SDS011;11380;50.822;15.790;2023-08-20T20:58:19;86.80;;;65.00;;
22425;SDS011;11380;50.822;15.790;2023-08-20T21:03:26;87.53;;;65.87;;
22425;SDS011;11380;50.822;15.790;2023-08-20T21:08:33;87.20;;;64.40;;
22425;SDS011;11380;50.822;15.790;2023-08-20T21:13:40;84.80;;;64.20;;
22425;SDS011;11380;50.822;15.790;2023-08-20T21:18:48;84.90;;;64.57;;
22425;SDS011;11380;50.822;15.790;2023-08-20T21:23:55;88.60;;;65.70;;
22425;SDS011;11380;50.822;15.790;2023-08-20T21:29:02;88.87;;;65.33;;
22425;SDS011;11380;50.822;15.790;2023-08-20T21:34:10;90.28;;;66.50;;
22425;SDS011;11380;50.822;15.790;2023-08-20T21:39:17;88.03;;;65.03;;
22425;SDS011;11380;50.822;15.790;2023-08-20T21:44:23;86.87;;;64.90;;
22425;SDS011;11380;50.822;15.790;2023-08-20T21:49:30;84.90;;;64.90;;
22425;SDS011;11380;50.822;15.790;2023-08-20T21:54:37;88.34;;;65.68;;
22425;SDS011;11380;50.822;15.790;2023-08-20T21:59:48;88.45;;;65.45;;
22425;SDS011;11380;50.822;15.790;2023-08-20T22:05:16;86.90;;;66.15;;
22425;SDS011;11380;50.822;15.790;2023-08-20T22:10:26;87.00;;;66.17;;
22425;SDS011;11380;50.822;15.790;2023-08-20T22:15:33;88.23;;;65.57;;
22425;SDS011;11380;50.822;15.790;2023-08-20T22:20:40;86.53;;;65.17;;
22425;SDS011;11380;50.822;15.790;2023-08-20T22:25:48;89.37;;;66.15;;
22425;SDS011;11380;50.822;15.790;2023-08-20T22:30:56;87.27;;;65.40;;
22425;SDS011;11380;50.822;15.790;2023-08-20T22:36:05;89.60;;;66.50;;
22425;SDS011;11380;50.822;15.790;2023-08-20T22:41:12;90.83;;;67.00;;
22425;SDS011;11380;50.822;15.790;2023-08-20T22:46:19;85.97;;;65.07;;
22425;SDS011;11380;50.822;15.790;2023-08-20T22:51:26;87.67;;;66.20;;
22425;SDS011;11380;50.822;15.790;2023-08-20T22:56:33;84.15;;;65.45;;
22425;SDS011;11380;50.822;15.790;2023-08-20T23:01:43;84.40;;;64.50;;
22425;SDS011;11380;50.822;15.790;2023-08-20T23:06:52;89.47;;;65.07;;
22425;SDS011;11380;50.822;15.790;2023-08-20T23:11:58;87.97;;;65.33;;
22425;SDS011;11380;50.822;15.790;2023-08-20T23:17:05;86.50;;;64.97;;
22425;SDS011;11380;50.822;15.790;2023-08-20T23:22:13;87.10;;;66.93;;
22425;SDS011;11380;50.822;15.790;2023-08-20T23:27:21;85.83;;;65.80;;
22425;SDS011;11380;50.822;15.790;2023-08-20T23:32:29;83.87;;;65.60;;
22425;SDS011;11380;50.822;15.790;2023-08-20T23:37:39;85.00;;;64.87;;
22425;SDS011;11380;50.822;15.790;2023-08-20T23:42:45;87.83;;;64.17;;
22425;SDS011;11380;50.822;15.790;2023-08-20T23:47:54;86.53;;;65.33;;
22425;SDS011;11380;50.822;15.790;2023-08-20T23:53:02;86.10;;;65.80;;
22425;SDS011;11380;50.822;15.790;2023-08-20T23:58:10;85.03;;;65.13;;
